»·PEaware :: N735YJ KAPV-KBFL

N735YJ :: KAPV-KBFL

FLIGHT INFORMATION

Flight Status: Arrived
Operator: Privately registered:
United States
More flights under this callsign
Pilot: Wausau Flying Service (12986)
Aircraft: CESSNA 172 SKYHAWK
(C172)
More flights by this aircraft type
Origin: KAPV Apple Valley
United States
Destination: KBFL Meadows
United States
More flights between these airports :: More routes between these airports
Route: KAPV KPMD KBFL
File this flight plan on PilotEdge
Remarks:
Altitude:
(Current/Filed)
6,500ft
Speed:
(Current/Filed)
110kts
Departed: 30-Sep-18 01:44 PM
Arrived: 30-Sep-18 02:44 PM
Distance/Time
Traveled:
105nm/1:00
Distance/Time
To Go:
Arrived

Flight Plot

Page will automatically refresh every two minutes.

Flight plan parsing failed; only flown route is shown


Map Options




Map Legend


Flown Route
Filed Route
Departure Airport
Arrival Airport
Navaid (VOR, NDB)
Fix

Horizontal Profiles

Position Reports

Time Latitude Longitude Heading Altitude Ground
Speed
30-Sep-18 13:39 34.571336 -117.190628 192 3065ft 0kts
30-Sep-18 13:40 34.571155 -117.190410 123 3065ft 8kts
30-Sep-18 13:41 34.574426 -117.188473 23 3065ft 19kts
30-Sep-18 13:42 34.579562 -117.186710 13 3065ft 20kts
30-Sep-18 13:43 34.585658 -117.184588 12 3065ft 19kts
30-Sep-18 13:44 34.587689 -117.183513 91 3065ft 0kts
30-Sep-18 13:45 34.587689 -117.183513 91 3065ft 0kts
30-Sep-18 13:46 34.585203 -117.183310 195 3065ft 54kts
30-Sep-18 13:47 34.566386 -117.188554 185 3886ft 72kts
30-Sep-18 13:48 34.547705 -117.192051 225 4782ft 79kts
30-Sep-18 13:49 34.539224 -117.216423 291 5627ft 94kts
30-Sep-18 13:50 34.550979 -117.244359 283 6441ft 92kts
30-Sep-18 13:51 34.563641 -117.281123 290 6500ft 131kts
30-Sep-18 13:52 34.580288 -117.320882 287 6511ft 135kts
30-Sep-18 13:53 34.588002 -117.363450 270 6524ft 128kts
30-Sep-18 13:54 34.592369 -117.406433 268 6535ft 127kts
30-Sep-18 13:55 34.596648 -117.449263 273 6536ft 129kts
30-Sep-18 13:56 34.605324 -117.491123 280 6540ft 131kts
30-Sep-18 13:57 34.609824 -117.533070 254 6540ft 124kts
30-Sep-18 13:58 34.601890 -117.573323 247 6555ft 122kts
30-Sep-18 13:59 34.594457 -117.613729 258 6569ft 124kts
30-Sep-18 14:00 34.594872 -117.655986 267 6572ft 126kts
30-Sep-18 14:01 34.600882 -117.697934 271 6591ft 125kts
30-Sep-18 14:02 34.605864 -117.739619 270 6586ft 123kts
30-Sep-18 14:03 34.609504 -117.780481 270 6578ft 122kts
30-Sep-18 14:04 34.610959 -117.821227 262 6564ft 118kts
30-Sep-18 14:05 34.610646 -117.861348 268 6536ft 119kts
30-Sep-18 14:06 34.614624 -117.901690 270 6497ft 120kts
30-Sep-18 14:07 34.617954 -117.941593 270 6486ft 118kts
30-Sep-18 14:08 34.622607 -117.981170 273 6502ft 118kts
30-Sep-18 14:09 34.627500 -118.020470 279 6518ft 119kts
30-Sep-18 14:10 34.634177 -118.059250 265 6513ft 113kts
30-Sep-18 14:11 34.649862 -118.092364 306 6524ft 126kts
30-Sep-18 14:12 34.673296 -118.123950 302 6556ft 125kts
30-Sep-18 14:13 34.696517 -118.155447 311 6558ft 130kts
30-Sep-18 14:14 34.722470 -118.184377 304 6568ft 127kts
30-Sep-18 14:15 34.745863 -118.216889 303 6576ft 128kts
30-Sep-18 14:16 34.769877 -118.249264 304 6580ft 129kts
30-Sep-18 14:17 34.794999 -118.280984 306 6595ft 130kts
30-Sep-18 14:18 34.821209 -118.311754 303 6610ft 130kts
30-Sep-18 14:19 34.841234 -118.342526 298 7260ft 93kts
30-Sep-18 14:20 34.856969 -118.366161 304 8009ft 91kts
30-Sep-18 14:21 34.875446 -118.388750 303 8493ft 109kts
30-Sep-18 14:22 34.898036 -118.418015 304 8492ft 125kts
30-Sep-18 14:23 34.922481 -118.447793 307 8497ft 124kts
30-Sep-18 14:24 34.946634 -118.477161 302 8492ft 120kts
30-Sep-18 14:25 34.966600 -118.509180 298 8495ft 117kts
30-Sep-18 14:26 34.985679 -118.541313 298 8505ft 116kts
30-Sep-18 14:27 35.007213 -118.570806 310 8507ft 119kts
30-Sep-18 14:28 35.028524 -118.600803 306 8516ft 116kts
30-Sep-18 14:29 35.051805 -118.628612 309 8528ft 116kts
30-Sep-18 14:30 35.073815 -118.660227 303 8054ft 123kts
30-Sep-18 14:31 35.096296 -118.691791 305 7342ft 125kts
30-Sep-18 14:32 35.119466 -118.722152 321 6691ft 125kts
30-Sep-18 14:33 35.146649 -118.747828 323 6065ft 124kts
30-Sep-18 14:34 35.176674 -118.768653 334 5480ft 125kts
30-Sep-18 14:35 35.206451 -118.790438 323 5027ft 124kts
30-Sep-18 14:36 35.233550 -118.816454 317 4433ft 124kts
30-Sep-18 14:37 35.257807 -118.846447 318 3714ft 124kts
30-Sep-18 14:38 35.282528 -118.875563 317 3056ft 124kts
30-Sep-18 14:39 35.306987 -118.905521 316 2555ft 126kts
30-Sep-18 14:40 35.332514 -118.934515 317 2574ft 126kts
30-Sep-18 14:41 35.357550 -118.964118 316 2560ft 126kts
30-Sep-18 14:42 35.378497 -118.989668 315 2077ft 100kts
30-Sep-18 14:43 35.397537 -119.012295 317 1496ft 93kts
30-Sep-18 14:44 35.415420 -119.034297 316 992ft 89kts
30-Sep-18 14:45 35.431879 -119.053838 315 575ft 62kts
30-Sep-18 14:46 35.436332 -119.057400 88 509ft 0kts
30-Sep-18 14:47 35.436307 -119.057132 106 509ft 11kts
30-Sep-18 14:48 35.432615 -119.052495 136 509ft 19kts
30-Sep-18 14:49 35.429970 -119.048177 74 509ft 12kts
30-Sep-18 14:50 35.429733 -119.046775 137 509ft 0kts
30-Sep-18 14:51 35.429733 -119.046775 137 509ft 0kts
30-Sep-18 14:52 35.429733 -119.046775 137 509ft 0kts
30-Sep-18 14:53 35.429733 -119.046775 137 509ft 0kts
30-Sep-18 14:54 35.429733 -119.046775 137 509ft 0kts
30-Sep-18 14:55 35.429733 -119.046775 137 509ft 0kts

Navigation Log

Ident Type
Flight plan parsing failed, navigation log unavailable